sensor_id;sensor_type;location;lat;lon;timestamp;temperature;humidity
26541;DHT22;14206;50.202;10.948;2023-04-01T00:01:26;9.90;96.60
26541;DHT22;14206;50.202;10.948;2023-04-01T00:03:53;9.90;96.60
26541;DHT22;14206;50.202;10.948;2023-04-01T00:06:21;9.90;96.60
26541;DHT22;14206;50.202;10.948;2023-04-01T00:08:48;9.90;96.60
26541;DHT22;14206;50.202;10.948;2023-04-01T00:11:16;9.90;96.60
26541;DHT22;14206;50.202;10.948;2023-04-01T00:13:46;9.90;96.50
26541;DHT22;14206;50.202;10.948;2023-04-01T00:16:13;9.90;96.60
26541;DHT22;14206;50.202;10.948;2023-04-01T00:18:48;9.90;96.60
26541;DHT22;14206;50.202;10.948;2023-04-01T00:21:15;9.90;96.50
26541;DHT22;14206;50.202;10.948;2023-04-01T00:23:43;9.90;96.60
26541;DHT22;14206;50.202;10.948;2023-04-01T00:26:10;9.90;96.60
26541;DHT22;14206;50.202;10.948;2023-04-01T00:28:39;9.90;96.60
26541;DHT22;14206;50.202;10.948;2023-04-01T00:31:07;9.90;96.60
26541;DHT22;14206;50.202;10.948;2023-04-01T00:33:35;9.90;96.60
26541;DHT22;14206;50.202;10.948;2023-04-01T00:36:12;9.90;96.40
26541;DHT22;14206;50.202;10.948;2023-04-01T00:38:41;9.90;96.50
26541;DHT22;14206;50.202;10.948;2023-04-01T00:41:10;9.90;96.60
26541;DHT22;14206;50.202;10.948;2023-04-01T00:43:46;9.90;96.10
26541;DHT22;14206;50.202;10.948;2023-04-01T00:46:13;10.00;95.90
26541;DHT22;14206;50.202;10.948;2023-04-01T00:48:47;10.00;96.10
26541;DHT22;14206;50.202;10.948;2023-04-01T00:51:21;9.90;96.10
26541;DHT22;14206;50.202;10.948;2023-04-01T00:53:52;9.90;96.50
26541;DHT22;14206;50.202;10.948;2023-04-01T00:56:23;9.90;96.50
26541;DHT22;14206;50.202;10.948;2023-04-01T00:58:58;9.90;96.50
26541;DHT22;14206;50.202;10.948;2023-04-01T01:01:28;9.90;96.60
26541;DHT22;14206;50.202;10.948;2023-04-01T01:03:56;9.90;96.60
26541;DHT22;14206;50.202;10.948;2023-04-01T01:06:33;9.90;96.60
26541;DHT22;14206;50.202;10.948;2023-04-01T01:09:44;9.90;96.60
26541;DHT22;14206;50.202;10.948;2023-04-01T01:15:12;9.90;96.40
26541;DHT22;14206;50.202;10.948;2023-04-01T01:21:00;10.00;96.20
26541;DHT22;14206;50.202;10.948;2023-04-01T01:23:50;9.90;96.40
26541;DHT22;14206;50.202;10.948;2023-04-01T01:26:57;10.00;96.00
26541;DHT22;14206;50.202;10.948;2023-04-01T01:35:38;10.00;95.90
26541;DHT22;14206;50.202;10.948;2023-04-01T01:38:17;9.90;96.10
26541;DHT22;14206;50.202;10.948;2023-04-01T01:40:52;9.90;95.90
26541;DHT22;14206;50.202;10.948;2023-04-01T01:43:30;9.90;95.70
26541;DHT22;14206;50.202;10.948;2023-04-01T01:46:05;9.90;95.80
26541;DHT22;14206;50.202;10.948;2023-04-01T01:48:34;9.90;95.50
26541;DHT22;14206;50.202;10.948;2023-04-01T01:51:06;10.00;95.10
26541;DHT22;14206;50.202;10.948;2023-04-01T01:53:33;10.00;94.60
26541;DHT22;14206;50.202;10.948;2023-04-01T01:56:00;10.00;94.40
26541;DHT22;14206;50.202;10.948;2023-04-01T01:58:34;10.10;94.00
26541;DHT22;14206;50.202;10.948;2023-04-01T02:01:17;10.10;94.30
26541;DHT22;14206;50.202;10.948;2023-04-01T02:03:46;10.00;93.70
26541;DHT22;14206;50.202;10.948;2023-04-01T02:06:17;10.10;93.60
26541;DHT22;14206;50.202;10.948;2023-04-01T02:08:51;10.10;93.30
26541;DHT22;14206;50.202;10.948;2023-04-01T02:12:05;10.00;93.30
26541;DHT22;14206;50.202;10.948;2023-04-01T02:14:28;10.00;93.90
26541;DHT22;14206;50.202;10.948;2023-04-01T02:17:07;10.00;93.70
26541;DHT22;14206;50.202;10.948;2023-04-01T02:19:40;10.00;93.50
26541;DHT22;14206;50.202;10.948;2023-04-01T02:22:14;10.00;94.00
26541;DHT22;14206;50.202;10.948;2023-04-01T02:24:43;9.90;93.60
26541;DHT22;14206;50.202;10.948;2023-04-01T02:27:12;9.90;93.50
26541;DHT22;14206;50.202;10.948;2023-04-01T02:29:39;9.90;93.90
26541;DHT22;14206;50.202;10.948;2023-04-01T02:32:07;9.90;93.80
26541;DHT22;14206;50.202;10.948;2023-04-01T02:34:35;9.90;93.90
26541;DHT22;14206;50.202;10.948;2023-04-01T02:37:02;9.90;93.40
26541;DHT22;14206;50.202;10.948;2023-04-01T02:39:29;9.90;93.80
26541;DHT22;14206;50.202;10.948;2023-04-01T02:41:56;9.90;93.60
26541;DHT22;14206;50.202;10.948;2023-04-01T02:44:23;9.90;93.60
26541;DHT22;14206;50.202;10.948;2023-04-01T02:46:50;9.90;93.80
26541;DHT22;14206;50.202;10.948;2023-04-01T02:49:17;9.90;93.60
26541;DHT22;14206;50.202;10.948;2023-04-01T02:51:44;10.00;93.40
26541;DHT22;14206;50.202;10.948;2023-04-01T02:54:11;10.00;93.50
26541;DHT22;14206;50.202;10.948;2023-04-01T02:56:38;9.90;93.90
26541;DHT22;14206;50.202;10.948;2023-04-01T02:59:05;10.00;93.40
26541;DHT22;14206;50.202;10.948;2023-04-01T03:01:32;10.00;93.70
26541;DHT22;14206;50.202;10.948;2023-04-01T03:03:59;10.00;93.40
26541;DHT22;14206;50.202;10.948;2023-04-01T03:06:26;10.00;93.30
26541;DHT22;14206;50.202;10.948;2023-04-01T03:08:52;9.90;93.10
26541;DHT22;14206;50.202;10.948;2023-04-01T03:11:19;9.90;93.00
26541;DHT22;14206;50.202;10.948;2023-04-01T03:13:47;9.90;93.20
26541;DHT22;14206;50.202;10.948;2023-04-01T03:16:15;9.80;93.40
26541;DHT22;14206;50.202;10.948;2023-04-01T03:18:42;9.70;93.50
26541;DHT22;14206;50.202;10.948;2023-04-01T03:21:35;9.70;94.10
26541;DHT22;14206;50.202;10.948;2023-04-01T03:24:02;9.70;93.80
26541;DHT22;14206;50.202;10.948;2023-04-01T03:26:29;9.80;93.80
26541;DHT22;14206;50.202;10.948;2023-04-01T03:28:57;9.80;93.50
26541;DHT22;14206;50.202;10.948;2023-04-01T03:31:24;9.80;93.80
26541;DHT22;14206;50.202;10.948;2023-04-01T03:33:54;9.80;93.70
26541;DHT22;14206;50.202;10.948;2023-04-01T03:36:21;9.80;93.80
26541;DHT22;14206;50.202;10.948;2023-04-01T03:38:48;9.80;93.70
26541;DHT22;14206;50.202;10.948;2023-04-01T03:41:22;9.80;93.70
26541;DHT22;14206;50.202;10.948;2023-04-01T03:43:49;9.70;93.90
26541;DHT22;14206;50.202;10.948;2023-04-01T03:46:18;9.70;94.00
26541;DHT22;14206;50.202;10.948;2023-04-01T03:48:46;9.70;94.10
26541;DHT22;14206;50.202;10.948;2023-04-01T03:51:13;9.70;94.20
26541;DHT22;14206;50.202;10.948;2023-04-01T03:53:40;9.70;94.60
26541;DHT22;14206;50.202;10.948;2023-04-01T03:56:07;9.70;94.30
26541;DHT22;14206;50.202;10.948;2023-04-01T03:58:36;9.60;94.50
26541;DHT22;14206;50.202;10.948;2023-04-01T04:01:21;9.60;94.70
26541;DHT22;14206;50.202;10.948;2023-04-01T04:03:51;9.60;94.60
26541;DHT22;14206;50.202;10.948;2023-04-01T04:06:20;9.60;94.90
26541;DHT22;14206;50.202;10.948;2023-04-01T04:08:48;9.60;94.80
26541;DHT22;14206;50.202;10.948;2023-04-01T04:11:16;9.50;94.70
26541;DHT22;14206;50.202;10.948;2023-04-01T04:13:43;9.60;94.60
26541;DHT22;14206;50.202;10.948;2023-04-01T04:16:10;9.60;94.70
26541;DHT22;14206;50.202;10.948;2023-04-01T04:18:42;9.60;94.70
26541;DHT22;14206;50.202;10.948;2023-04-01T04:21:12;9.60;94.50
26541;DHT22;14206;50.202;10.948;2023-04-01T04:23:41;9.60;94.70
26541;DHT22;14206;50.202;10.948;2023-04-01T04:26:11;9.60;94.50
26541;DHT22;14206;50.202;10.948;2023-04-01T04:28:38;9.60;94.20
26541;DHT22;14206;50.202;10.948;2023-04-01T04:31:06;9.70;94.20
26541;DHT22;14206;50.202;10.948;2023-04-01T04:33:35;9.70;93.90
26541;DHT22;14206;50.202;10.948;2023-04-01T04:36:04;9.70;94.10
26541;DHT22;14206;50.202;10.948;2023-04-01T04:38:31;9.70;93.70
26541;DHT22;14206;50.202;10.948;2023-04-01T04:40:58;9.80;93.40
26541;DHT22;14206;50.202;10.948;2023-04-01T04:43:25;9.80;93.50
26541;DHT22;14206;50.202;10.948;2023-04-01T04:45:52;9.80;93.60
26541;DHT22;14206;50.202;10.948;2023-04-01T04:48:19;9.80;93.20
26541;DHT22;14206;50.202;10.948;2023-04-01T04:50:49;9.90;93.20
26541;DHT22;14206;50.202;10.948;2023-04-01T04:53:18;9.80;93.30
26541;DHT22;14206;50.202;10.948;2023-04-01T04:55:48;9.90;93.40
26541;DHT22;14206;50.202;10.948;2023-04-01T04:58:38;9.80;93.40
26541;DHT22;14206;50.202;10.948;2023-04-01T05:01:11;9.80;93.50
26541;DHT22;14206;50.202;10.948;2023-04-01T05:03:39;9.80;93.80
26541;DHT22;14206;50.202;10.948;2023-04-01T05:06:07;9.80;93.30
26541;DHT22;14206;50.202;10.948;2023-04-01T05:08:36;9.80;93.20
26541;DHT22;14206;50.202;10.948;2023-04-01T05:11:03;9.80;93.10
26541;DHT22;14206;50.202;10.948;2023-04-01T05:13:32;9.70;93.10
26541;DHT22;14206;50.202;10.948;2023-04-01T05:15:59;9.70;93.30
26541;DHT22;14206;50.202;10.948;2023-04-01T05:18:25;9.70;93.50
26541;DHT22;14206;50.202;10.948;2023-04-01T05:20:53;9.70;93.60
26541;DHT22;14206;50.202;10.948;2023-04-01T05:23:22;9.80;93.70
26541;DHT22;14206;50.202;10.948;2023-04-01T05:25:49;9.80;93.60
26541;DHT22;14206;50.202;10.948;2023-04-01T05:28:17;9.80;93.60
26541;DHT22;14206;50.202;10.948;2023-04-01T05:30:46;9.90;93.70
26541;DHT22;14206;50.202;10.948;2023-04-01T05:33:20;9.90;93.80
26541;DHT22;14206;50.202;10.948;2023-04-01T05:35:48;9.90;94.00
26541;DHT22;14206;50.202;10.948;2023-04-01T05:38:14;9.90;93.90
26541;DHT22;14206;50.202;10.948;2023-04-01T05:40:41;9.90;93.50
26541;DHT22;14206;50.202;10.948;2023-04-01T05:43:08;10.00;93.60
26541;DHT22;14206;50.202;10.948;2023-04-01T05:45:35;10.00;93.90
26541;DHT22;14206;50.202;10.948;2023-04-01T05:48:30;10.00;93.60
26541;DHT22;14206;50.202;10.948;2023-04-01T05:50:57;10.00;93.40
26541;DHT22;14206;50.202;10.948;2023-04-01T05:53:24;10.10;93.00
26541;DHT22;14206;50.202;10.948;2023-04-01T05:55:51;10.20;92.90
26541;DHT22;14206;50.202;10.948;2023-04-01T05:58:18;10.20;92.80
26541;DHT22;14206;50.202;10.948;2023-04-01T06:00:46;10.30;92.00
26541;DHT22;14206;50.202;10.948;2023-04-01T06:03:15;10.40;92.00
26541;DHT22;14206;50.202;10.948;2023-04-01T06:05:43;10.40;92.10
26541;DHT22;14206;50.202;10.948;2023-04-01T06:08:16;10.40;91.40
26541;DHT22;14206;50.202;10.948;2023-04-01T06:11:14;10.50;91.40
26541;DHT22;14206;50.202;10.948;2023-04-01T06:14:01;10.50;91.70
26541;DHT22;14206;50.202;10.948;2023-04-01T06:19:44;10.50;91.20
26541;DHT22;14206;50.202;10.948;2023-04-01T06:25:32;10.50;90.80
26541;DHT22;14206;50.202;10.948;2023-04-01T06:37:02;11.00;89.80
26541;DHT22;14206;50.202;10.948;2023-04-01T06:39:42;11.00;90.10
26541;DHT22;14206;50.202;10.948;2023-04-01T06:42:25;11.00;89.80
26541;DHT22;14206;50.202;10.948;2023-04-01T06:45:31;10.90;89.70
26541;DHT22;14206;50.202;10.948;2023-04-01T06:51:28;10.80;89.90
26541;DHT22;14206;50.202;10.948;2023-04-01T06:54:20;10.80;90.00
26541;DHT22;14206;50.202;10.948;2023-04-01T06:59:40;10.90;89.70
26541;DHT22;14206;50.202;10.948;2023-04-01T07:02:18;10.80;89.20
26541;DHT22;14206;50.202;10.948;2023-04-01T07:04:48;10.90;88.90
26541;DHT22;14206;50.202;10.948;2023-04-01T07:10:15;11.00;89.20
26541;DHT22;14206;50.202;10.948;2023-04-01T07:13:09;11.00;88.30
26541;DHT22;14206;50.202;10.948;2023-04-01T07:19:18;11.10;88.30
26541;DHT22;14206;50.202;10.948;2023-04-01T07:22:01;11.10;88.30
26541;DHT22;14206;50.202;10.948;2023-04-01T07:24:53;11.00;88.30
26541;DHT22;14206;50.202;10.948;2023-04-01T07:27:21;11.10;88.30
26541;DHT22;14206;50.202;10.948;2023-04-01T07:29:47;11.10;88.00
26541;DHT22;14206;50.202;10.948;2023-04-01T07:32:26;11.20;88.00
26541;DHT22;14206;50.202;10.948;2023-04-01T07:44:15;11.10;88.50
26541;DHT22;14206;50.202;10.948;2023-04-01T07:49:43;11.00;88.50
26541;DHT22;14206;50.202;10.948;2023-04-01T07:57:22;10.80;89.80
26541;DHT22;14206;50.202;10.948;2023-04-01T08:00:20;10.90;89.20
26541;DHT22;14206;50.202;10.948;2023-04-01T08:06:00;11.00;88.60
26541;DHT22;14206;50.202;10.948;2023-04-01T08:14:59;11.00;89.00
26541;DHT22;14206;50.202;10.948;2023-04-01T08:20:26;11.10;89.40
26541;DHT22;14206;50.202;10.948;2023-04-01T08:23:03;11.00;89.80
26541;DHT22;14206;50.202;10.948;2023-04-01T08:25:40;11.10;89.90
26541;DHT22;14206;50.202;10.948;2023-04-01T08:31:08;11.30;90.40
26541;DHT22;14206;50.202;10.948;2023-04-01T08:33:36;11.40;90.10
26541;DHT22;14206;50.202;10.948;2023-04-01T08:39:29;11.40;90.60
26541;DHT22;14206;50.202;10.948;2023-04-01T08:54:26;11.60;91.60
26541;DHT22;14206;50.202;10.948;2023-04-01T08:56:45;11.50;91.80
26541;DHT22;14206;50.202;10.948;2023-04-01T08:59:31;11.50;92.00
26541;DHT22;14206;50.202;10.948;2023-04-01T09:05:34;11.30;94.00
26541;DHT22;14206;50.202;10.948;2023-04-01T09:11:05;11.30;95.30
26541;DHT22;14206;50.202;10.948;2023-04-01T09:22:28;11.20;95.60
26541;DHT22;14206;50.202;10.948;2023-04-01T09:30:52;11.20;96.60
26541;DHT22;14206;50.202;10.948;2023-04-01T09:42:08;11.40;96.00
26541;DHT22;14206;50.202;10.948;2023-04-01T09:45:18;11.50;94.90
26541;DHT22;14206;50.202;10.948;2023-04-01T09:53:36;11.70;94.20
26541;DHT22;14206;50.202;10.948;2023-04-01T09:56:34;11.60;93.40
26541;DHT22;14206;50.202;10.948;2023-04-01T09:59:29;11.60;94.00
26541;DHT22;14206;50.202;10.948;2023-04-01T10:10:46;12.00;91.70
26541;DHT22;14206;50.202;10.948;2023-04-01T10:24:48;12.30;89.80
26541;DHT22;14206;50.202;10.948;2023-04-01T11:23:06;11.40;94.60
26541;DHT22;14206;50.202;10.948;2023-04-01T11:36:34;11.50;96.10
26541;DHT22;14206;50.202;10.948;2023-04-01T11:39:41;11.60;96.40
26541;DHT22;14206;50.202;10.948;2023-04-01T11:46:05;11.50;95.40
26541;DHT22;14206;50.202;10.948;2023-04-01T11:51:25;11.30;96.60
26541;DHT22;14206;50.202;10.948;2023-04-01T11:54:34;11.20;96.60
26541;DHT22;14206;50.202;10.948;2023-04-01T11:57:18;11.10;96.60
26541;DHT22;14206;50.202;10.948;2023-04-01T12:02:44;11.00;96.60
26541;DHT22;14206;50.202;10.948;2023-04-01T12:05:28;11.00;96.60
26541;DHT22;14206;50.202;10.948;2023-04-01T12:08:21;10.90;96.60
26541;DHT22;14206;50.202;10.948;2023-04-01T12:14:03;10.90;96.60
26541;DHT22;14206;50.202;10.948;2023-04-01T12:16:41;10.90;96.60
26541;DHT22;14206;50.202;10.948;2023-04-01T12:27:23;11.70;96.60
26541;DHT22;14206;50.202;10.948;2023-04-01T12:30:26;11.80;96.60
26541;DHT22;14206;50.202;10.948;2023-04-01T12:33:45;12.00;96.60
26541;DHT22;14206;50.202;10.948;2023-04-01T12:36:32;12.20;96.10
26541;DHT22;14206;50.202;10.948;2023-04-01T12:42:07;12.50;96.00
26541;DHT22;14206;50.202;10.948;2023-04-01T12:47:50;12.80;95.00
26541;DHT22;14206;50.202;10.948;2023-04-01T12:50:34;12.90;93.00
26541;DHT22;14206;50.202;10.948;2023-04-01T12:55:42;13.20;92.80
26541;DHT22;14206;50.202;10.948;2023-04-01T13:01:23;13.40;92.00
26541;DHT22;14206;50.202;10.948;2023-04-01T13:04:23;13.50;92.00
26541;DHT22;14206;50.202;10.948;2023-04-01T13:06:56;13.40;90.60
26541;DHT22;14206;50.202;10.948;2023-04-01T13:09:51;13.10;91.40
26541;DHT22;14206;50.202;10.948;2023-04-01T13:18:03;12.90;92.70
26541;DHT22;14206;50.202;10.948;2023-04-01T13:23:39;12.90;92.20
26541;DHT22;14206;50.202;10.948;2023-04-01T13:29:13;12.60;94.10
26541;DHT22;14206;50.202;10.948;2023-04-01T13:32:11;12.60;94.30
26541;DHT22;14206;50.202;10.948;2023-04-01T13:43:43;12.50;94.50
26541;DHT22;14206;50.202;10.948;2023-04-01T13:46:38;12.40;94.80
26541;DHT22;14206;50.202;10.948;2023-04-01T13:58:14;12.10;96.00
26541;DHT22;14206;50.202;10.948;2023-04-01T14:01:10;12.10;96.30
26541;DHT22;14206;50.202;10.948;2023-04-01T14:03:51;12.10;96.60
26541;DHT22;14206;50.202;10.948;2023-04-01T14:11:52;11.90;96.60
26541;DHT22;14206;50.202;10.948;2023-04-01T14:14:31;11.80;96.60
26541;DHT22;14206;50.202;10.948;2023-04-01T14:17:14;11.70;96.60
26541;DHT22;14206;50.202;10.948;2023-04-01T14:20:25;11.60;96.60
26541;DHT22;14206;50.202;10.948;2023-04-01T14:25:41;11.40;96.60
26541;DHT22;14206;50.202;10.948;2023-04-01T14:31:31;11.30;96.60
26541;DHT22;14206;50.202;10.948;2023-04-01T14:45:20;11.00;96.60
26541;DHT22;14206;50.202;10.948;2023-04-01T14:48:17;11.10;96.60
26541;DHT22;14206;50.202;10.948;2023-04-01T14:50:54;11.10;96.60
26541;DHT22;14206;50.202;10.948;2023-04-01T14:55:53;11.10;96.60
26541;DHT22;14206;50.202;10.948;2023-04-01T14:58:23;11.10;96.60
26541;DHT22;14206;50.202;10.948;2023-04-01T15:01:16;11.10;96.60
26541;DHT22;14206;50.202;10.948;2023-04-01T15:07:18;11.10;96.60
26541;DHT22;14206;50.202;10.948;2023-04-01T15:10:01;11.10;96.60
26541;DHT22;14206;50.202;10.948;2023-04-01T15:17:41;11.10;96.60
26541;DHT22;14206;50.202;10.948;2023-04-01T15:23:23;11.00;96.60
26541;DHT22;14206;50.202;10.948;2023-04-01T15:26:11;11.00;96.60
26541;DHT22;14206;50.202;10.948;2023-04-01T15:34:42;11.00;96.60
26541;DHT22;14206;50.202;10.948;2023-04-01T15:37:39;10.90;96.60
26541;DHT22;14206;50.202;10.948;2023-04-01T15:43:03;10.80;96.60
26541;DHT22;14206;50.202;10.948;2023-04-01T15:45:43;10.80;96.60
26541;DHT22;14206;50.202;10.948;2023-04-01T15:51:16;10.80;96.60
26541;DHT22;14206;50.202;10.948;2023-04-01T16:02:44;10.80;96.60
26541;DHT22;14206;50.202;10.948;2023-04-01T16:23:00;10.60;96.60
26541;DHT22;14206;50.202;10.948;2023-04-01T16:28:52;10.70;96.60
26541;DHT22;14206;50.202;10.948;2023-04-01T16:34:27;10.70;96.60
26541;DHT22;14206;50.202;10.948;2023-04-01T16:37:28;10.70;96.60
26541;DHT22;14206;50.202;10.948;2023-04-01T16:40:24;10.70;96.60
26541;DHT22;14206;50.202;10.948;2023-04-01T16:42:58;10.70;96.60
26541;DHT22;14206;50.202;10.948;2023-04-01T16:45:38;10.70;96.60
26541;DHT22;14206;50.202;10.948;2023-04-01T16:48:18;10.70;96.60
26541;DHT22;14206;50.202;10.948;2023-04-01T16:51:03;10.70;96.60
26541;DHT22;14206;50.202;10.948;2023-04-01T16:53:35;10.70;96.60
26541;DHT22;14206;50.202;10.948;2023-04-01T16:56:21;10.60;96.60
26541;DHT22;14206;50.202;10.948;2023-04-01T17:01:44;10.60;96.60
26541;DHT22;14206;50.202;10.948;2023-04-01T17:12:31;10.60;96.60
26541;DHT22;14206;50.202;10.948;2023-04-01T17:42:30;10.40;96.60
26541;DHT22;14206;50.202;10.948;2023-04-01T17:50:22;10.30;96.60
26541;DHT22;14206;50.202;10.948;2023-04-01T17:53:06;10.30;96.60
26541;DHT22;14206;50.202;10.948;2023-04-01T17:56:29;10.20;96.60
26541;DHT22;14206;50.202;10.948;2023-04-01T18:10:11;10.20;96.60
26541;DHT22;14206;50.202;10.948;2023-04-01T18:27:15;10.10;96.60
26541;DHT22;14206;50.202;10.948;2023-04-01T18:29:54;10.10;96.60
26541;DHT22;14206;50.202;10.948;2023-04-01T18:40:20;10.20;96.60
26541;DHT22;14206;50.202;10.948;2023-04-01T18:46:03;10.20;96.60
26541;DHT22;14206;50.202;10.948;2023-04-01T18:48:52;10.20;96.60
26541;DHT22;14206;50.202;10.948;2023-04-01T18:56:49;10.20;96.60
26541;DHT22;14206;50.202;10.948;2023-04-01T18:59:26;10.20;96.60
26541;DHT22;14206;50.202;10.948;2023-04-01T19:10:22;10.30;96.60
26541;DHT22;14206;50.202;10.948;2023-04-01T19:21:26;10.20;96.60
26541;DHT22;14206;50.202;10.948;2023-04-01T19:24:03;10.20;96.60
26541;DHT22;14206;50.202;10.948;2023-04-01T19:27:17;10.20;96.60
26541;DHT22;14206;50.202;10.948;2023-04-01T19:35:47;10.20;96.60
26541;DHT22;14206;50.202;10.948;2023-04-01T19:44:12;10.10;96.60
26541;DHT22;14206;50.202;10.948;2023-04-01T19:46:48;10.10;96.60
26541;DHT22;14206;50.202;10.948;2023-04-01T19:49:21;10.10;96.60
26541;DHT22;14206;50.202;10.948;2023-04-01T20:00:07;10.00;96.60
26541;DHT22;14206;50.202;10.948;2023-04-01T20:02:54;10.00;96.60
26541;DHT22;14206;50.202;10.948;2023-04-01T20:05:48;10.00;96.60
26541;DHT22;14206;50.202;10.948;2023-04-01T20:11:35;10.00;96.60
26541;DHT22;14206;50.202;10.948;2023-04-01T20:14:30;10.00;96.60
26541;DHT22;14206;50.202;10.948;2023-04-01T20:22:09;10.00;96.60
26541;DHT22;14206;50.202;10.948;2023-04-01T20:24:45;9.90;96.60
26541;DHT22;14206;50.202;10.948;2023-04-01T20:38:35;9.90;96.60
26541;DHT22;14206;50.202;10.948;2023-04-01T20:44:11;9.90;96.60
26541;DHT22;14206;50.202;10.948;2023-04-01T20:49:42;9.90;96.60
26541;DHT22;14206;50.202;10.948;2023-04-01T20:58:00;10.00;96.60
26541;DHT22;14206;50.202;10.948;2023-04-01T21:20:00;10.20;96.60
26541;DHT22;14206;50.202;10.948;2023-04-01T21:22:34;10.20;96.60
26541;DHT22;14206;50.202;10.948;2023-04-01T21:25:21;10.20;96.60
26541;DHT22;14206;50.202;10.948;2023-04-01T21:30:59;10.20;96.60
26541;DHT22;14206;50.202;10.948;2023-04-01T21:36:42;10.10;96.60
26541;DHT22;14206;50.202;10.948;2023-04-01T21:50:14;9.90;96.60
26541;DHT22;14206;50.202;10.948;2023-04-01T22:01:14;9.70;96.60
26541;DHT22;14206;50.202;10.948;2023-04-01T22:04:43;9.60;96.60
26541;DHT22;14206;50.202;10.948;2023-04-01T22:07:01;9.60;96.60
26541;DHT22;14206;50.202;10.948;2023-04-01T22:09:30;9.60;96.60
26541;DHT22;14206;50.202;10.948;2023-04-01T22:12:02;9.60;96.60
26541;DHT22;14206;50.202;10.948;2023-04-01T22:14:40;9.60;96.60
26541;DHT22;14206;50.202;10.948;2023-04-01T22:23:07;9.50;96.60
26541;DHT22;14206;50.202;10.948;2023-04-01T22:28:47;9.50;96.60
26541;DHT22;14206;50.202;10.948;2023-04-01T22:31:23;9.50;96.60
26541;DHT22;14206;50.202;10.948;2023-04-01T22:34:05;9.50;96.60
26541;DHT22;14206;50.202;10.948;2023-04-01T22:36:51;9.50;96.60
26541;DHT22;14206;50.202;10.948;2023-04-01T22:39:42;9.50;96.60
26541;DHT22;14206;50.202;10.948;2023-04-01T22:42:41;9.50;96.60
26541;DHT22;14206;50.202;10.948;2023-04-01T22:45:33;9.50;96.60
26541;DHT22;14206;50.202;10.948;2023-04-01T22:48:20;9.50;96.60
26541;DHT22;14206;50.202;10.948;2023-04-01T22:56:16;9.40;96.60
26541;DHT22;14206;50.202;10.948;2023-04-01T22:59:08;9.40;96.60
26541;DHT22;14206;50.202;10.948;2023-04-01T23:01:48;9.40;96.60
26541;DHT22;14206;50.202;10.948;2023-04-01T23:04:23;9.40;96.60
26541;DHT22;14206;50.202;10.948;2023-04-01T23:06:56;9.40;96.60
26541;DHT22;14206;50.202;10.948;2023-04-01T23:09:27;9.40;96.60
26541;DHT22;14206;50.202;10.948;2023-04-01T23:12:02;9.40;96.60
26541;DHT22;14206;50.202;10.948;2023-04-01T23:14:44;9.40;96.60
26541;DHT22;14206;50.202;10.948;2023-04-01T23:22:42;9.40;96.60
26541;DHT22;14206;50.202;10.948;2023-04-01T23:25:26;9.40;96.60
26541;DHT22;14206;50.202;10.948;2023-04-01T23:33:28;9.40;96.60
26541;DHT22;14206;50.202;10.948;2023-04-01T23:36:11;9.40;96.60
26541;DHT22;14206;50.202;10.948;2023-04-01T23:38:41;9.40;96.60
26541;DHT22;14206;50.202;10.948;2023-04-01T23:41:18;9.40;96.60
26541;DHT22;14206;50.202;10.948;2023-04-01T23:43:56;9.40;96.60
26541;DHT22;14206;50.202;10.948;2023-04-01T23:46:25;9.30;96.60
26541;DHT22;14206;50.202;10.948;2023-04-01T23:48:52;9.30;96.60
26541;DHT22;14206;50.202;10.948;2023-04-01T23:51:26;9.40;96.60
26541;DHT22;14206;50.202;10.948;2023-04-01T23:54:04;9.40;96.60
26541;DHT22;14206;50.202;10.948;2023-04-01T23:56:44;9.40;96.60
26541;DHT22;14206;50.202;10.948;2023-04-01T23:59:22;9.40;96.60
